Bates, Idaho
Current Conditions -  °F | °C
As of 10:56 AM on Wednesday 26 Nov 2014 (Local Time) from KDIJ Reporting Station
Overcast Overcast  
Wind Chill: 30°   Ceiling: 6500
Heat Index: 38°   Visibility: 10mi
Dew Point: 32°   Wind: 14mph
Humidity: 79%   Direction: 160°SSE
Pressure: 30.28"   Gusts: NA
Location:  43.7205°N, 111.251°W
Report Text: KDIJ 261756Z AUTO 16012KT 10SM SCT027 OVC065 03/00 A3028 RMK AO2 51016 T00330000 10038 20027 SLP235
Loading
Personal Weather Stations






























Interactive Weather Map New forecast layout! Learn more

10-Day Weather Forecast

Advertisements
Track Severe Weather on mobile